• Join FlightAware (Why Join?)
  • Login
  • US Flag 
04:49PM EDT


 

Airport Tracker/Info


-or-


 

Live Flight TrackerFlight Track Log ✈ SWA1435 ✈ 23-Apr-2013 ✈ KDAL - KSTL

Flight Track Log - Related Links

Times and Time Zones

All times are in EDT time to prevent confusion due to time zone crossing. See the SWA1435 flight status page for this flight to view local times or setup timezone preferences in your user account.

Time Position Orientation Groundspeed Altitude Reporting Facility
EDT Latitude Longitude Course Direction KTS MPH feet Rate Location/Type
07:13AM 32.8333 -96.8333 90° East 155 178 1,200  Level Dallas / Fort Worth TRACON
07:15AM 32.8333 -96.7333 90° East 295 339 5,700 2,160 Climbing Dallas / Fort Worth TRACON
07:16AM 32.9167 -96.7500 350° North 289 333 8,200 2,520 Climbing Dallas / Fort Worth TRACON
07:18AM 33.0906 -96.7761 353° North 336 387 13,400 2,640 Climbing Fort Worth Center
07:19AM 33.1972 -96.7903 354° North 350 403 16,200 2,760 Climbing Fort Worth Center
07:20AM 33.2869 -96.8022 354° North 363 418 19,000 2,940 Climbing Fort Worth Center
07:21AM 33.4039 -96.8161 354° North 377 434 22,100 2,640 Climbing Fort Worth Center
07:22AM 33.5103 -96.7881 12° North 395 455 24,300 1,920 Climbing Fort Worth Center
07:23AM 33.6164 -96.7200 28° Northeast 399 459 26,000 1,800 Climbing Fort Worth Center
07:24AM 33.7225 -96.6517 28° Northeast 417 480 27,900 1,680 Climbing Fort Worth Center
07:25AM 33.8306 -96.5808 29° Northeast 437 503 29,400 1,560 Climbing Fort Worth Center
07:26AM 33.9425 -96.5072 29° Northeast 443 510 31,100 1,620 Climbing Fort Worth Center
07:27AM 34.0444 -96.4433 27° Northeast 448 516 32,700 1,560 Climbing Fort Worth Center
07:28AM 34.1439 -96.3644 33° Northeast 438 504 34,300 1,380 Climbing Fort Worth Center
07:29AM 34.2497 -96.2778 34° Northeast 438 504 35,500 1,260 Climbing Fort Worth Center
07:30AM 34.3511 -96.1936 34° Northeast 443 510 36,800 720 Climbing Fort Worth Center
07:31AM 34.4567 -96.1064 34° Northeast 448 516 37,000 60 Climbing Fort Worth Center
07:32AM 34.5619 -96.0164 35° Northeast 448 516 37,000  Level Fort Worth Center
07:33AM 34.6694 -95.9289 34° Northeast 453 521 37,000  Level Fort Worth Center
07:34AM 34.7747 -95.8411 34° Northeast 453 521 37,000  Level Fort Worth Center
07:35AM 34.8781 -95.7531 35° Northeast 459 528 37,000  Level Fort Worth Center
07:36AM 34.9933 -95.6497 36° Northeast 459 528 37,000  Level Fort Worth Center
07:37AM 35.0942 -95.5536 38° Northeast 459 528 37,000  Level Fort Worth Center
07:38AM 35.1950 -95.4547 39° Northeast 459 528 37,000  Level Fort Worth Center
07:40AM 35.3708 -95.2900 37° Northeast 455 524 37,000  Level Kansas City Center
07:41AM 35.4683 -95.1981 38° Northeast 451 519 37,000  Level Memphis Center
07:42AM 35.5700 -95.1044 37° Northeast 451 519 37,000  Level Memphis Center
07:43AM 35.6694 -95.0078 38° Northeast 451 519 37,000  Level Memphis Center
07:44AM 35.7669 -94.9111 39° Northeast 451 519 37,000  Level Memphis Center
07:45AM 35.8686 -94.8117 38° Northeast 451 519 37,000  Level Memphis Center
07:46AM 35.9656 -94.7167 38° Northeast 451 519 37,000  Level Memphis Center
07:47AM 36.0650 -94.6194 38° Northeast 451 519 37,000  Level Memphis Center
07:48AM 36.1683 -94.5219 37° Northeast 451 519 37,000  Level Memphis Center
07:50AM 36.3653 -94.3258 39° Northeast 457 526 37,000  Level Kansas City Center
07:51AM 36.4642 -94.2294 38° Northeast 455 524 37,000  Level Kansas City Center
07:52AM 36.5822 -94.1131 38° Northeast 454 522 37,000  Level Kansas City Center
07:53AM 36.6797 -94.0167 38° Northeast 451 519 37,000  Level Kansas City Center
07:54AM 36.7772 -93.9200 38° Northeast 449 517 37,000  Level Kansas City Center
07:55AM 36.8744 -93.8231 39° Northeast 448 516 37,000  Level Kansas City Center
07:56AM 36.9728 -93.7217 39° Northeast 444 511 37,000  Level Kansas City Center
07:57AM 37.0714 -93.6228 39° Northeast 449 517 37,000  Level Kansas City Center
07:58AM 37.1708 -93.5233 39° Northeast 453 521 37,000  Level Kansas City Center
07:59AM 37.2706 -93.4242 38° Northeast 455 524 37,000  Level Kansas City Center
08:00AM 37.3678 -93.3236 39° Northeast 452 520 37,000  Level Kansas City Center
08:01AM 37.4614 -93.2136 43° Northeast 458 527 37,000  Level Kansas City Center
08:02AM 37.5558 -93.1050 42° Northeast 458 527 37,000  Level Kansas City Center
08:03AM 37.6494 -92.9961 43° Northeast 455 524 37,000  Level Kansas City Center
08:04AM 37.7417 -92.8850 44° Northeast 456 525 37,000  Level Kansas City Center
08:05AM 37.8344 -92.7772 43° Northeast 451 519 37,000  Level Kansas City Center
08:06AM 37.9283 -92.6544 46° Northeast 459 528 37,000 -420 Level Kansas City Center
08:07AM 38.0014 -92.5136 57° Northeast 476 548 36,200 -1,800 Descending Kansas City Center
08:08AM 38.0764 -92.3703 56° Northeast 484 557 33,300 -3,000 Descending Kansas City Center
08:09AM 38.1558 -92.2289 54° Northeast 491 565 30,100 -3,000 Descending Kansas City Center
08:10AM 38.2356 -92.0775 56° Northeast 490 564 27,300 -2,640 Descending Kansas City Center
08:11AM 38.3086 -91.9389 56° Northeast 476 548 24,800 -2,460 Descending Kansas City Center
08:12AM 38.3783 -91.8067 56° Northeast 454 522 22,500 -2,400 Descending Kansas City Center
08:13AM 38.4458 -91.6789 56° Northeast 438 504 20,000 -2,340 Descending Kansas City Center
08:14AM 38.5103 -91.5547 56° Northeast 424 488 17,800 -2,220 Descending Kansas City Center
08:15AM 38.5733 -91.4350 56° Northeast 410 472 15,500 -2,400 Descending Kansas City Center
08:16AM 38.6408 -91.2511 65° Northeast 388 447 13,000 -2,460 Descending FAA TRACON SMA TRACON (SMA)
08:16AM 38.6594 -91.2169 55° Northeast 384 442 12,300 -2,040 Descending FAA TRACON SMA TRACON (SMA)
08:17AM 38.6753 -91.1825 60° Northeast 376 433 11,700 -2,100 Descending FAA TRACON SMA TRACON (SMA)
08:17AM 38.6894 -91.1372 68° East 365 420 10,900 -2,100 Descending FAA TRACON SMA TRACON (SMA)
08:17AM 38.6939 -91.0997 81° East 350 403 10,300 -1,080 Descending FAA TRACON SMA TRACON (SMA)
08:18AM 38.6997 -91.0647 78° East 333 383 10,200 -480 Descending FAA TRACON SMA TRACON (SMA)
08:18AM 38.7064 -91.0236 78° East 309 356 10,000 -900 Descending FAA TRACON SMA TRACON (SMA)
08:18AM 38.7106 -90.9922 80° East 296 341 9,600 -1,380 Descending FAA TRACON SMA TRACON (SMA)
08:19AM 38.7158 -90.9608 78° East 292 336 9,100 -1,800 Descending FAA TRACON SMA TRACON (SMA)
08:19AM 38.7225 -90.9217 78° East 294 338 8,400 -1,860 Descending FAA TRACON SMA TRACON (SMA)
08:19AM 38.7269 -90.8903 80° East 293 337 7,900 -1,500 Descending FAA TRACON SMA TRACON (SMA)
08:20AM 38.7317 -90.8586 79° East 294 338 7,400 -1,320 Descending FAA TRACON SMA TRACON (SMA)
08:20AM 38.7361 -90.8200 82° East 288 331 7,000 -780 Descending FAA TRACON SMA TRACON (SMA)
08:20AM 38.7403 -90.7903 80° East 279 321 6,900 -600 Descending FAA TRACON SMA TRACON (SMA)
08:21AM 38.7456 -90.7628 76° East 263 303 6,600 -1,680 Descending FAA TRACON SMA TRACON (SMA)
08:21AM 38.7500 -90.7264 81° East 267 307 5,800 -2,100 Descending FAA TRACON SMA TRACON (SMA)
08:21AM 38.7542 -90.6967 80° East 275 316 5,200 -1,800 Descending FAA TRACON SMA TRACON (SMA)
08:22AM 38.7592 -90.6664 78° East 283 326 4,600 -1,980 Descending FAA TRACON SMA TRACON (SMA)
08:22AM 38.7647 -90.6275 80° East 288 331 3,900 -1,680 Descending FAA TRACON SMA TRACON (SMA)
08:22AM 38.7692 -90.5961 80° East 290 334 3,500 -600 Descending FAA TRACON SMA TRACON (SMA)
08:23AM 38.7736 -90.5664 79° East 283 326 3,500  Level FAA TRACON SMA TRACON (SMA)
08:23AM 38.7783 -90.5322 80° East 258 297 3,500 -300 Level FAA TRACON SMA TRACON (SMA)
08:23AM 38.7825 -90.5058 79° East 247 284 3,300 -900 Descending FAA TRACON SMA TRACON (SMA)
08:24AM 38.7864 -90.4794 79° East 244 281 2,900 -1,320 Descending FAA TRACON SMA TRACON (SMA)
08:24AM 38.7908 -90.4481 80° East 235 270 2,400 -900 Descending FAA TRACON SMA TRACON (SMA)
08:24AM 38.7956 -90.4267 74° East 214 246 2,300 -480 Descending FAA TRACON SMA TRACON (SMA)
08:25AM 38.7917 -90.4086 105° East 189 217 2,100 -780 Descending FAA TRACON SMA TRACON (SMA)
08:25AM 38.7831 -90.3925 124° Southeast 149 171 1,800 -900 Descending FAA TRACON SMA TRACON (SMA)
08:25AM 38.7772 -90.3806 122° Southeast 133 153 1,500 -600 Descending FAA TRACON SMA TRACON (SMA)
08:26AM 38.7714 -90.3692 123° Southeast 124 143 1,400 -600 Descending FAA TRACON SMA TRACON (SMA)
08:26AM 38.7642 -90.3547 123° Southeast 124 143 1,100 -600 Descending FAA TRACON SMA TRACON (SMA)
08:26AM 38.7586 -90.3436 123° Southeast 121 139 1,000 -480 Descending FAA TRACON SMA TRACON (SMA)
08:27AM 38.7528 -90.3325 124° Southeast 121 139 800 -600 Descending FAA TRACON SMA TRACON (SMA)
08:27AM 38.7500 -90.3264 120° Southeast 123 142 600 -300 Descending FAA TRACON SMA TRACON (SMA)
08:27AM 38.7472 -90.2994 98° East 178 205 600  Level FAA TRACON SMA TRACON (SMA)
08:28AM 38.7472 -90.2994 303° West 178 205 600  Level FAA TRACON SMA TRACON (SMA)